createdAt,value
2023-01-01T00:02:37.049Z,102607.47
2023-01-01T00:07:35.244Z,102603.19
2023-01-01T00:12:34.489Z,102595.41
2023-01-01T00:17:32.312Z,102604.94
2023-01-01T00:27:52.501Z,102602.34
2023-01-01T00:32:54.616Z,102598.91
2023-01-01T00:37:54.098Z,102604.06
2023-01-01T00:42:53.428Z,102617.00
2023-01-01T00:47:52.022Z,102630.78
2023-01-01T00:52:50.095Z,102628.22
2023-01-01T00:57:50.748Z,102628.22
2023-01-01T01:02:50.181Z,102622.16
2023-01-01T01:07:48.017Z,102611.81
2023-01-01T01:12:45.813Z,102608.34
2023-01-01T01:17:43.673Z,102610.06
2023-01-01T01:22:42.853Z,102614.38
2023-01-01T01:27:40.751Z,102611.78
2023-01-01T01:32:38.615Z,102612.63
2023-01-01T01:37:36.469Z,102620.44
2023-01-01T01:42:35.691Z,102610.94
2023-01-01T01:47:35.050Z,102605.75
2023-01-01T01:52:33.984Z,102611.81
2023-01-01T01:57:32.845Z,102601.47
2023-01-01T02:02:34.661Z,102609.22
2023-01-01T02:07:34.895Z,102609.28
2023-01-01T02:12:32.837Z,102606.66
2023-01-01T02:17:39.051Z,102615.31
2023-01-01T02:22:55.808Z,102614.44
2023-01-01T02:28:01.560Z,102608.41
2023-01-01T02:33:03.879Z,102615.31
2023-01-01T02:38:05.102Z,102619.63
2023-01-01T02:43:03.657Z,102612.75
2023-01-01T02:48:06.446Z,102612.72
2023-01-01T02:53:08.859Z,102600.63
2023-01-01T02:58:26.240Z,102593.69
2023-01-01T03:03:28.975Z,102581.59
2023-01-01T03:08:31.216Z,102573.84
2023-01-01T03:13:33.449Z,102579.84
2023-01-01T03:18:35.022Z,102589.31
2023-01-01T03:23:36.883Z,102585.84
2023-01-01T03:28:36.825Z,102588.44
2023-01-01T03:33:40.707Z,102591.84
2023-01-01T03:38:40.557Z,102589.22
2023-01-01T03:43:42.054Z,102594.38
2023-01-01T03:49:02.075Z,102592.63
2023-01-01T03:54:03.496Z,102600.38
2023-01-01T03:59:03.296Z,102593.50
2023-01-01T04:04:04.557Z,102598.69
2023-01-01T04:09:04.174Z,102603.91
2023-01-01T04:14:01.989Z,102601.38
2023-01-01T04:18:59.825Z,102597.06
2023-01-01T04:23:59.014Z,102595.25
2023-01-01T04:28:56.852Z,102601.25
2023-01-01T04:33:54.949Z,102613.22
2023-01-01T04:38:52.937Z,102609.75
2023-01-01T04:43:52.211Z,102610.69
2023-01-01T04:48:50.239Z,102600.41
2023-01-01T04:53:48.499Z,102606.47
2023-01-01T04:58:46.870Z,102613.44
2023-01-01T05:03:46.099Z,102606.59
2023-01-01T05:08:44.749Z,102612.63
2023-01-01T05:13:43.456Z,102598.88
2023-01-01T05:18:41.425Z,102599.69
2023-01-01T05:23:40.641Z,102605.75
2023-01-01T05:28:38.649Z,102599.75
2023-01-01T05:33:36.818Z,102602.31
2023-01-01T05:38:34.857Z,102606.66
2023-01-01T05:43:34.124Z,102607.53
2023-01-01T05:48:32.236Z,102613.53
2023-01-01T05:53:30.859Z,102623.94
2023-01-01T05:58:29.289Z,102623.06
2023-01-01T06:03:28.503Z,102643.81
2023-01-01T06:08:26.323Z,102648.97
2023-01-01T06:13:24.116Z,102654.19
2023-01-01T06:18:21.979Z,102660.19
2023-01-01T06:23:21.362Z,102665.38
2023-01-01T06:28:19.224Z,102665.06
2023-01-01T06:33:17.044Z,102666.19
2023-01-01T06:38:14.873Z,102666.50
2023-01-01T06:43:14.062Z,102680.28
2023-01-01T06:48:11.942Z,102668.72
2023-01-01T06:53:09.742Z,102670.31
2023-01-01T06:58:09.997Z,102675.41
2023-01-01T07:03:10.875Z,102676.44
2023-01-01T07:08:08.869Z,102690.84
2023-01-01T07:13:06.670Z,102676.50
2023-01-01T07:18:04.594Z,102673.47
2023-01-01T07:23:03.758Z,102667.38
2023-01-01T07:28:01.587Z,102668.53
2023-01-01T07:32:59.462Z,102661.22
2023-01-01T07:37:57.343Z,102663.00
2023-01-01T07:42:56.553Z,102664.41
2023-01-01T07:47:55.547Z,102669.63
2023-01-01T07:52:53.410Z,102674.41
2023-01-01T07:57:51.252Z,102674.22
2023-01-01T08:02:50.735Z,102680.66
2023-01-01T08:07:48.890Z,102684.19
2023-01-01T08:12:47.100Z,102684.03
2023-01-01T08:17:47.224Z,102688.34
2023-01-01T08:22:46.912Z,102689.56
2023-01-01T08:27:44.730Z,102688.94
2023-01-01T08:32:43.184Z,102685.97
2023-01-01T08:37:41.027Z,102689.59
2023-01-01T08:42:40.473Z,102682.97
2023-01-01T08:47:38.365Z,102679.22
2023-01-01T08:52:36.187Z,102672.50
2023-01-01T08:57:33.995Z,102672.63
2023-01-01T09:02:33.592Z,102660.09
2023-01-01T09:07:32.135Z,102669.81
2023-01-01T09:12:29.975Z,102665.00
2023-01-01T09:17:27.803Z,102658.28
2023-01-01T09:22:27.990Z,102659.44
2023-01-01T09:27:25.806Z,102659.09
2023-01-01T09:32:24.199Z,102647.59
2023-01-01T09:37:22.011Z,102646.53
2023-01-01T09:42:30.694Z,102651.31
2023-01-01T09:47:31.661Z,102637.78
2023-01-01T09:52:36.938Z,102637.16
2023-01-01T09:57:37.265Z,102640.00
2023-01-01T10:02:40.909Z,102632.63
2023-01-01T10:07:42.927Z,102633.47
2023-01-01T10:12:47.322Z,102623.53
2023-01-01T10:17:47.585Z,102626.09
2023-01-01T10:22:47.768Z,102621.78
2023-01-01T10:27:53.852Z,102621.56
2023-01-01T10:32:56.513Z,102622.19
2023-01-01T10:37:54.394Z,102610.75
2023-01-01T10:42:54.786Z,102590.53
2023-01-01T10:48:11.549Z,102588.41
2023-01-01T10:53:19.844Z,102585.47
2023-01-01T10:58:28.517Z,102590.09
2023-01-01T11:03:26.502Z,102587.34
2023-01-01T11:08:29.210Z,102583.16
2023-01-01T11:13:29.312Z,102579.44
2023-01-01T11:18:28.857Z,102568.09
2023-01-01T11:23:31.133Z,102568.81
2023-01-01T11:28:31.831Z,102561.44
2023-01-01T11:33:31.772Z,102554.47
2023-01-01T11:38:30.538Z,102559.84
2023-01-01T11:43:29.300Z,102557.56
2023-01-01T11:48:30.167Z,102540.16
2023-01-01T11:53:29.760Z,102541.50
2023-01-01T11:58:32.180Z,102538.78
2023-01-01T12:03:34.931Z,102537.50
2023-01-01T12:08:34.982Z,102537.47
2023-01-01T12:13:36.386Z,102539.41
2023-01-01T12:18:38.613Z,102535.97
2023-01-01T12:23:37.315Z,102526.34
2023-01-01T12:28:41.706Z,102529.34
2023-01-01T12:33:48.389Z,102525.75
2023-01-01T12:39:12.578Z,102522.88
2023-01-01T12:44:16.491Z,102525.47
2023-01-01T12:49:23.602Z,102513.03
2023-01-01T12:54:37.910Z,102512.94
2023-01-01T12:59:38.124Z,102505.56
2023-01-01T13:04:37.752Z,102509.56
2023-01-01T13:09:37.786Z,102511.91
2023-01-01T13:14:38.971Z,102508.41
2023-01-01T13:19:38.468Z,102513.03
2023-01-01T13:24:36.335Z,102520.69
2023-01-01T13:29:35.223Z,102524.94
2023-01-01T13:34:35.446Z,102527.59
2023-01-01T13:39:53.613Z,102522.28
2023-01-01T13:44:52.798Z,102534.59
2023-01-01T13:50:04.836Z,102523.81
2023-01-01T13:55:29.674Z,102525.56
2023-01-01T14:00:32.662Z,102520.47
2023-01-01T14:05:32.703Z,102529.38
2023-01-01T14:10:33.319Z,102529.28
2023-01-01T14:15:33.433Z,102518.66
2023-01-01T14:20:33.851Z,102513.56
2023-01-01T14:25:31.750Z,102515.59
2023-01-01T14:30:32.192Z,102519.13
2023-01-01T14:35:31.711Z,102522.38
2023-01-01T14:40:29.658Z,102516.03
2023-01-01T14:45:27.815Z,102508.09
2023-01-01T14:50:28.102Z,102508.03
2023-01-01T14:55:29.013Z,102510.84
2023-01-01T15:00:28.488Z,102512.56
2023-01-01T15:05:34.833Z,102517.59
2023-01-01T15:10:35.484Z,102520.13
2023-01-01T15:15:41.310Z,102524.28
2023-01-01T15:20:39.189Z,102527.53
2023-01-01T15:25:38.550Z,102533.38
2023-01-01T15:30:37.266Z,102534.94
2023-01-01T15:35:38.310Z,102537.44
2023-01-01T15:40:37.235Z,102550.44
2023-01-01T15:45:38.016Z,102544.50
2023-01-01T15:50:38.231Z,102544.22
2023-01-01T15:55:38.091Z,102551.66
2023-01-01T16:00:39.405Z,102556.56
2023-01-01T16:05:37.264Z,102558.03
2023-01-01T16:10:35.170Z,102565.44
2023-01-01T16:15:33.087Z,102564.31
2023-01-01T16:20:32.306Z,102563.91
2023-01-01T16:25:30.124Z,102565.00
2023-01-01T16:30:28.004Z,102558.56
2023-01-01T16:35:26.793Z,102567.44
2023-01-01T16:40:32.631Z,102546.66
2023-01-01T16:45:36.640Z,102567.22
2023-01-01T16:50:36.505Z,102575.31
2023-01-01T16:55:35.711Z,102572.88
2023-01-01T17:00:33.823Z,102572.13
2023-01-01T17:05:32.018Z,102572.34
2023-01-01T17:10:29.932Z,102569.22
2023-01-01T17:15:29.280Z,102570.16
2023-01-01T17:20:27.289Z,102572.75
2023-01-01T17:25:25.244Z,102575.34
2023-01-01T17:30:23.172Z,102578.03
2023-01-01T17:35:22.593Z,102580.72
2023-01-01T17:40:20.520Z,102580.06
2023-01-01T17:45:18.452Z,102582.72
2023-01-01T17:50:16.713Z,102580.94
2023-01-01T17:55:16.232Z,102586.28
2023-01-01T18:00:14.526Z,102584.53
2023-01-01T18:05:13.253Z,102573.22
2023-01-01T18:10:11.283Z,102575.06
2023-01-01T18:15:11.231Z,102571.66
2023-01-01T18:20:12.854Z,102573.56
2023-01-01T18:25:10.939Z,102564.06
2023-01-01T18:30:10.894Z,102565.97
2023-01-01T18:35:09.420Z,102573.06
2023-01-01T18:40:12.168Z,102571.31
2023-01-01T18:45:16.265Z,102563.56
2023-01-01T18:50:25.111Z,102569.59
2023-01-01T18:55:29.704Z,102559.31
2023-01-01T19:00:31.306Z,102556.00
2023-01-01T19:05:30.557Z,102556.19
2023-01-01T19:10:34.204Z,102559.78
2023-01-01T19:15:33.403Z,102571.88
2023-01-01T19:20:31.314Z,102563.22
2023-01-01T19:25:35.627Z,102570.28
2023-01-01T19:30:35.220Z,102566.06
2023-01-01T19:35:33.241Z,102565.31
2023-01-01T19:40:31.256Z,102564.50
2023-01-01T19:45:29.142Z,102560.19
2023-01-01T19:50:28.414Z,102564.50
2023-01-01T19:55:26.965Z,102570.50
2023-01-01T20:00:27.501Z,102568.84
2023-01-01T20:05:28.948Z,102557.59
2023-01-01T20:10:31.618Z,102563.50
2023-01-01T20:15:29.429Z,102566.34
2023-01-01T20:20:27.390Z,102567.34
2023-01-01T20:25:25.402Z,102567.38
2023-01-01T20:30:24.783Z,102572.69
2023-01-01T20:35:37.656Z,102572.78
2023-01-01T20:40:35.497Z,102573.66
2023-01-01T20:45:35.057Z,102575.38
2023-01-01T20:50:32.974Z,102582.25
2023-01-01T20:55:31.100Z,102586.41
2023-01-01T21:00:29.017Z,102587.50
2023-01-01T21:05:28.675Z,102578.88
2023-01-01T21:10:29.149Z,102582.38
2023-01-01T21:15:27.101Z,102578.00
2023-01-01T21:21:08.715Z,102588.53
2023-01-01T21:26:16.097Z,102589.44
2023-01-01T21:31:15.143Z,102587.84
2023-01-01T21:36:17.299Z,102581.72
2023-01-01T21:41:19.320Z,102582.63
2023-01-01T21:52:48.296Z,102570.69
2023-01-01T21:57:47.516Z,102568.06
2023-01-01T22:02:46.812Z,102570.88
2023-01-01T22:07:57.626Z,102568.31
2023-01-01T22:13:00.345Z,102571.81
2023-01-01T22:18:06.928Z,102569.25
2023-01-01T22:23:11.896Z,102574.44
2023-01-01T22:28:20.345Z,102568.44
2023-01-01T22:33:19.479Z,102560.75
2023-01-01T22:38:19.546Z,102564.25
2023-01-01T22:43:20.719Z,102557.38
2023-01-01T22:48:21.556Z,102548.91
2023-01-01T22:53:19.383Z,102541.03
2023-01-01T22:58:17.192Z,102537.56
2023-01-01T23:03:16.464Z,102536.69
2023-01-01T23:08:15.412Z,102527.25
2023-01-01T23:13:31.137Z,102528.94
2023-01-01T23:18:30.616Z,102522.91
2023-01-01T23:23:28.907Z,102517.81
2023-01-01T23:28:27.505Z,102522.16
2023-01-01T23:33:25.426Z,102517.00
2023-01-01T23:38:27.418Z,102516.16
2023-01-01T23:43:25.244Z,102515.31
2023-01-01T23:48:23.656Z,102515.31
2023-01-01T23:53:21.505Z,102510.22
2023-01-01T23:58:20.754Z,102515.44
